»·PEaware :: N8782R KVNY-KTNP

N8782R :: KVNY-KTNP

FLIGHT INFORMATION

Flight Status: Arrived
Operator: Privately registered:
United States
More flights under this callsign
Pilot: Skye D. (10623)
Aircraft: BEECH AIRCRAFT SUPER KING AIR COMMUTER
(BE20)
More flights by this aircraft type
Origin: KVNY Van Nuys
United States
Destination: KTNP Twentynine Palms
United States
More flights between these airports :: More routes between these airports
Route: +ADAMM2 ADAMM V186 NIKKL V64 TRM TNP
File this flight plan on PilotEdge
Remarks:
Altitude:
(Current/Filed)
19,000ft
Speed:
(Current/Filed)
240kts
Departed: 27-Feb-18 07:44 PM
Arrived: 27-Feb-18 08:55 PM
Distance/Time
Traveled:
126nm/1:11
Distance/Time
To Go:
Arrived

Flight Plot

Page will automatically refresh every two minutes.

Flight plan parsing failed; only flown route is shown


Map Options




Map Legend


Flown Route
Filed Route
Departure Airport
Arrival Airport
Navaid (VOR, NDB)
Fix

Horizontal Profiles

Position Reports

Time Latitude Longitude Heading Altitude Ground
Speed
27-Feb-18 19:19 34.205909 -118.491673 178 805ft 0kts
27-Feb-18 19:20 34.205909 -118.491673 178 805ft 0kts
27-Feb-18 19:21 34.205909 -118.491673 178 805ft 0kts
27-Feb-18 19:22 34.205909 -118.491673 178 805ft 0kts
27-Feb-18 19:23 34.205909 -118.491673 178 805ft 0kts
27-Feb-18 19:24 34.205909 -118.491673 178 805ft 0kts
27-Feb-18 19:25 34.205909 -118.491673 178 805ft 0kts
27-Feb-18 19:26 34.205909 -118.491673 178 805ft 0kts
27-Feb-18 19:27 34.205909 -118.491673 178 805ft 0kts
27-Feb-18 19:28 34.205909 -118.491673 178 805ft 0kts
27-Feb-18 19:29 34.205909 -118.491673 178 805ft 0kts
27-Feb-18 19:30 34.205909 -118.491673 178 805ft 0kts
27-Feb-18 19:31 34.205909 -118.491673 178 805ft 0kts
27-Feb-18 19:32 34.205909 -118.491673 178 805ft 0kts
27-Feb-18 19:33 34.205909 -118.491673 178 805ft 0kts
27-Feb-18 19:34 34.205909 -118.491673 178 805ft 0kts
27-Feb-18 19:35 34.205909 -118.491673 178 805ft 0kts
27-Feb-18 19:36 34.205909 -118.491673 178 805ft 0kts
27-Feb-18 19:37 34.205730 -118.491394 81 805ft 0kts
27-Feb-18 19:38 34.205976 -118.491185 1 805ft 4kts
27-Feb-18 19:39 34.208760 -118.491521 356 805ft 20kts
27-Feb-18 19:40 34.211682 -118.491710 354 805ft 13kts
27-Feb-18 19:41 34.214850 -118.492020 349 805ft 13kts
27-Feb-18 19:42 34.217346 -118.492280 359 805ft 11kts
27-Feb-18 19:43 34.218725 -118.492097 73 805ft 0kts
27-Feb-18 19:44 34.218725 -118.492097 73 805ft 0kts
27-Feb-18 19:45 34.218725 -118.492097 73 805ft 0kts
27-Feb-18 19:46 34.218727 -118.492092 73 805ft 0kts
27-Feb-18 19:47 34.218727 -118.492092 73 805ft 0kts
27-Feb-18 19:48 34.218727 -118.492092 73 805ft 0kts
27-Feb-18 19:49 34.218741 -118.492029 76 805ft 1kts
27-Feb-18 19:50 34.218446 -118.491206 172 805ft 13kts
27-Feb-18 19:51 34.201367 -118.489927 181 1284ft 123kts
27-Feb-18 19:52 34.175825 -118.479432 140 2160ft 178kts
27-Feb-18 19:53 34.157707 -118.448487 122 3427ft 192kts
27-Feb-18 19:54 34.138136 -118.413286 124 3976ft 210kts
27-Feb-18 19:55 34.124961 -118.369865 93 4327ft 220kts
27-Feb-18 19:56 34.122207 -118.317689 92 5007ft 220kts
27-Feb-18 19:57 34.119628 -118.270942 92 5758ft 211kts
27-Feb-18 19:58 34.117237 -118.229746 92 6969ft 189kts
27-Feb-18 19:59 34.115231 -118.194730 92 8103ft 175kts
27-Feb-18 20:00 34.113263 -118.161720 92 9073ft 174kts
27-Feb-18 20:01 34.111291 -118.126026 92 9034ft 202kts
27-Feb-18 20:02 34.104179 -118.088823 112 9032ft 215kts
27-Feb-18 20:03 34.090616 -118.050748 111 9038ft 220kts
27-Feb-18 20:04 34.082885 -118.006281 97 9037ft 222kts
27-Feb-18 20:05 34.076935 -117.961542 97 9037ft 223kts
27-Feb-18 20:06 34.070160 -117.910367 97 9041ft 239kts
27-Feb-18 20:07 34.063477 -117.859552 97 9038ft 247kts
27-Feb-18 20:08 34.056918 -117.809711 97 9037ft 249kts
27-Feb-18 20:09 34.049593 -117.757687 97 9037ft 251kts
27-Feb-18 20:10 34.041754 -117.702851 97 9037ft 254kts
27-Feb-18 20:11 34.033787 -117.649541 109 9016ft 258kts
27-Feb-18 20:12 34.008232 -117.602404 119 9037ft 259kts
27-Feb-18 20:13 33.971328 -117.570375 148 9038ft 260kts
27-Feb-18 20:14 33.933242 -117.541554 146 9032ft 261kts
27-Feb-18 20:15 33.896192 -117.511493 145 9502ft 249kts
27-Feb-18 20:16 33.862697 -117.483645 144 10708ft 230kts
27-Feb-18 20:17 33.829462 -117.455841 143 11766ft 228kts
27-Feb-18 20:18 33.796358 -117.428147 143 12909ft 227kts
27-Feb-18 20:19 33.765230 -117.402115 142 13987ft 225kts
27-Feb-18 20:20 33.739486 -117.380469 138 14887ft 222kts
27-Feb-18 20:21 33.728024 -117.332256 92 16107ft 210kts
27-Feb-18 20:22 33.724189 -117.287160 91 17031ft 213kts
27-Feb-18 20:23 33.720367 -117.240021 91 17892ft 215kts
27-Feb-18 20:24 33.716725 -117.192160 93 18559ft 224kts
27-Feb-18 20:25 33.713327 -117.151389 94 19041ft 231kts
27-Feb-18 20:26 33.708126 -117.088750 94 19089ft 265kts
27-Feb-18 20:27 33.703995 -117.039210 94 19085ft 279kts
27-Feb-18 20:28 33.698230 -116.970262 94 19082ft 286kts
27-Feb-18 20:29 33.692216 -116.898597 94 19082ft 288kts
27-Feb-18 20:30 33.686371 -116.829438 94 19057ft 290kts
27-Feb-18 20:31 33.680024 -116.754670 94 19045ft 289kts
27-Feb-18 20:32 33.673143 -116.673449 95 19046ft 290kts
27-Feb-18 20:33 33.666144 -116.592865 95 19046ft 291kts
27-Feb-18 20:34 33.659344 -116.515007 95 19046ft 291kts
27-Feb-18 20:35 33.652420 -116.435539 95 19011ft 292kts
27-Feb-18 20:36 33.645253 -116.354324 95 18983ft 292kts
27-Feb-18 20:37 33.637973 -116.269516 95 18980ft 291kts
27-Feb-18 20:38 33.630844 -116.184633 88 18628ft 294kts
27-Feb-18 20:39 33.673101 -116.125440 32 17769ft 283kts
27-Feb-18 20:40 33.727574 -116.080714 31 16820ft 276kts
27-Feb-18 20:41 33.781365 -116.037575 32 15896ft 262kts
27-Feb-18 20:42 33.832069 -115.996694 32 14257ft 254kts
27-Feb-18 20:43 33.882639 -115.955863 31 12654ft 245kts
27-Feb-18 20:44 33.932636 -115.915643 30 11058ft 237kts
27-Feb-18 20:45 33.978495 -115.878562 29 9648ft 229kts
27-Feb-18 20:46 34.022428 -115.843028 29 8276ft 224kts
27-Feb-18 20:47 34.063046 -115.810088 29 7094ft 219kts
27-Feb-18 20:48 34.100066 -115.779895 29 6995ft 199kts
27-Feb-18 20:49 34.120521 -115.735752 82 7004ft 210kts
27-Feb-18 20:50 34.124040 -115.680037 83 6116ft 208kts
27-Feb-18 20:51 34.118962 -115.626779 140 5002ft 206kts
27-Feb-18 20:52 34.089274 -115.642549 266 4603ft 161kts
27-Feb-18 20:53 34.095794 -115.681340 285 4651ft 137kts
27-Feb-18 20:54 34.102716 -115.716963 284 4602ft 140kts
27-Feb-18 20:55 34.109098 -115.753115 285 4652ft 141kts
27-Feb-18 20:56 34.113239 -115.788673 280 4466ft 139kts
27-Feb-18 20:57 34.117730 -115.822867 282 3919ft 130kts
27-Feb-18 20:58 34.123468 -115.854786 283 3154ft 120kts
27-Feb-18 20:59 34.128822 -115.883275 287 2690ft 98kts
27-Feb-18 21:00 34.133282 -115.906423 285 2296ft 96kts
27-Feb-18 21:01 34.134435 -115.929811 274 1978ft 87kts
27-Feb-18 21:02 34.134423 -115.944845 271 1891ft 22kts
27-Feb-18 21:03 34.134632 -115.947343 359 1891ft 8kts
27-Feb-18 21:04 34.135230 -115.944779 89 1890ft 10kts
27-Feb-18 21:05 34.135610 -115.944363 0 1887ft 0kts
27-Feb-18 21:06 34.135610 -115.944363 0 1886ft 0kts

Navigation Log

Ident Type
Flight plan parsing failed, navigation log unavailable